Saltar para o conteúdo principal

Moncorvo

ID 1210654 · 41.1833, -7.0167 mapa

Última leitura · 2026-05-09 18:00 (Europe/Lisbon)

Temperatura
15.2 °C
Humidade
69 %
Pressão
1,005.6 hPa
Precipitação
0.0 mm
Radiação
1,321 W/m²
Velocidade do vento
9.0 km/h
Direcção do vento
SW · Sudoeste

Histórico de 24 horas

Hora (Europe/Lisbon) Temperatura Humidade Pressão Chuva Vento Direcção
2026-05-09 18:00 15.2 °C 69 % 1,005.6 0.0 mm 9.0 km/h SW
2026-05-09 17:00 13.7 °C 75 % 1,005.7 0.0 mm 11.9 km/h S
2026-05-09 16:00 11.8 °C 81 % 1,006.2 2.0 mm 13.0 km/h SE
2026-05-09 15:00 11.8 °C 84 % 1,006.6 4.6 mm 20.2 km/h S
2026-05-09 14:00 12.7 °C 84 % 1,006.1 2.0 mm 22.3 km/h SE
2026-05-09 13:00 12.5 °C 82 % 1,006.5 0.4 mm 14.8 km/h SE
2026-05-09 12:00 12.1 °C 79 % 1,006.9 1.2 mm 7.9 km/h SE
2026-05-09 11:00 12.6 °C 75 % 1,006.7 0.8 mm 24.8 km/h SE
2026-05-09 10:00 13.3 °C 66 % 1,006.4 0.0 mm 7.2 km/h E
2026-05-09 09:00 12.9 °C 63 % 1,006.6 0.0 mm 11.2 km/h SE
2026-05-09 08:00 12.0 °C 68 % 1,006.9 0.0 mm 9.7 km/h SE
2026-05-09 07:00 11.8 °C 69 % 1,006.9 0.0 mm 6.5 km/h SE
2026-05-09 06:00 12.5 °C 66 % 1,006.8 0.0 mm 13.7 km/h SE
2026-05-09 05:00 12.5 °C 68 % 1,007.2 0.0 mm 11.5 km/h SE
2026-05-09 04:00 13.2 °C 65 % 1,007.1 0.0 mm 16.2 km/h SE
2026-05-09 03:00 13.7 °C 61 % 1,007.4 0.1 mm 11.2 km/h S
2026-05-09 02:00 13.4 °C 64 % 1,007.7 0.0 mm 9.7 km/h SE
2026-05-09 01:00 12.8 °C 69 % 1,007.7 0.0 mm 12.6 km/h SE
2026-05-09 00:00 12.4 °C 74 % 1,008.3 0.0 mm 13.7 km/h SE
2026-05-08 23:00 12.3 °C 70 % 1,008.8 0.0 mm 10.4 km/h E
2026-05-08 22:00 12.7 °C 65 % 1,008.8 0.0 mm 10.4 km/h SE
2026-05-08 21:00 12.5 °C 72 % 1,008.8 0.0 mm 8.3 km/h SE
2026-05-08 20:00 14.8 °C 62 % 1,008.2 0.0 mm 3.6 km/h S
2026-05-08 19:00 15.7 °C 55 % 1,008.0 0.0 mm 3.6 km/h S